Time;durP1;ratioP1;P1;durP2;ratioP2;P2;SDS_P1;SDS_P2;PMS_P1;PMS_P2;Temp;Humidity;BMP_temperature;BMP_pressure;BME280_temperature;BME280_humidity;BME280_pressure;Samples;Min_cycle;Max_cycle;Signal;HPM_P1;HPM_P2
2022/04/08 00:01:10;;;;;;;6.90;1.97;;;;;;;7.27;52.27;98354.94;4971041;28;20248;-61
2022/04/08 00:03:35;;;;;;;5.47;1.70;;;;;;;7.22;53.28;98359.56;4971067;28;20239;-62
2022/04/08 00:06:00;;;;;;;7.50;1.77;;;;;;;7.22;52.64;98351.88;4971392;28;20534;-61
2022/04/08 00:08:26;;;;;;;9.43;1.90;;;;;;;7.23;52.24;98351.78;4972890;28;20190;-61
2022/04/08 00:10:51;;;;;;;4.70;1.87;;;;;;;7.18;53.34;98351.28;4964563;28;20309;-61
2022/04/08 00:13:17;;;;;;;6.90;2.77;;;;;;;7.11;54.00;98343.19;4981011;28;20183;-63
2022/04/08 00:15:43;;;;;;;6.80;1.70;;;;;;;7.13;54.29;98355.06;4970938;28;20651;-61
2022/04/08 00:18:08;;;;;;;6.30;1.47;;;;;;;7.14;54.34;98346.47;4971307;28;20232;-61
2022/04/08 00:20:34;;;;;;;7.87;2.03;;;;;;;7.13;54.28;98347.38;4966727;28;20530;-61
2022/04/08 00:23:03;;;;;;;10.20;2.20;;;;;;;7.18;54.52;98355.56;4990571;28;20669;-61
2022/04/08 00:25:28;;;;;;;7.07;2.13;;;;;;;7.14;54.70;98352.38;4990525;28;20201;-61
2022/04/08 00:27:54;;;;;;;7.33;2.07;;;;;;;7.14;54.92;98346.47;4991875;28;20523;-61
2022/04/08 00:30:19;;;;;;;5.70;2.30;;;;;;;7.12;55.19;98359.38;4984070;28;20292;-60
2022/04/08 00:32:44;;;;;;;5.63;2.43;;;;;;;7.15;54.97;98360.91;5005023;28;20192;-60
2022/04/08 00:35:10;;;;;;;8.60;2.17;;;;;;;7.09;56.08;98362.13;4991715;28;20589;-60
2022/04/08 00:37:36;;;;;;;6.10;1.90;;;;;;;7.09;55.30;98365.50;4992042;28;20182;-61
2022/04/08 00:40:02;;;;;;;7.23;2.30;;;;;;;7.09;56.08;98372.34;4991697;28;20519;-61
2022/04/08 00:42:28;;;;;;;8.80;2.20;;;;;;;7.07;56.41;98377.56;4966453;28;20228;-60
2022/04/08 00:44:53;;;;;;;9.30;1.77;;;;;;;7.01;56.85;98385.66;4995034;28;20182;-61
2022/04/08 00:47:18;;;;;;;10.87;2.23;;;;;;;7.02;56.92;98384.75;4995846;28;20175;-63
2022/04/08 00:49:44;;;;;;;7.37;2.17;;;;;;;7.13;57.08;98394.22;4995650;28;20173;-62
2022/04/08 00:52:10;;;;;;;5.37;1.70;;;;;;;7.09;57.24;98392.81;4983141;28;20320;-62
2022/04/08 00:54:37;;;;;;;7.67;2.00;;;;;;;7.01;57.59;98395.03;4974089;28;20191;-61
2022/04/08 00:57:03;;;;;;;9.37;2.40;;;;;;;7.09;57.70;98403.88;4974613;28;20225;-61
2022/04/08 00:59:29;;;;;;;5.37;2.10;;;;;;;7.03;58.20;98401.72;4974434;28;20178;-61
2022/04/08 01:01:56;;;;;;;9.47;2.60;;;;;;;7.02;58.48;98406.91;4967431;28;20260;-60
2022/04/08 01:04:23;;;;;;;8.87;1.87;;;;;;;7.00;58.85;98407.03;4973955;28;20223;-61
2022/04/08 01:06:49;;;;;;;10.80;2.30;;;;;;;6.94;58.91;98415.91;4975970;28;20636;-61
2022/04/08 01:09:15;;;;;;;9.83;2.67;;;;;;;6.94;59.00;98415.91;4974511;28;20182;-61
2022/04/08 01:11:43;;;;;;;13.00;2.50;;;;;;;6.94;59.47;98417.66;4967885;28;20244;-61
2022/04/08 01:14:13;;;;;;;7.47;2.17;;;;;;;6.96;59.25;98418.38;4977246;28;20260;-62
2022/04/08 01:16:39;;;;;;;10.17;2.20;;;;;;;6.95;58.95;98426.97;4975705;28;20175;-61
2022/04/08 01:19:05;;;;;;;13.27;3.37;;;;;;;6.93;59.22;98439.84;4975665;28;20286;-61
2022/04/08 01:21:31;;;;;;;10.80;2.60;;;;;;;6.91;59.84;98446.00;4967243;28;20240;-62
2022/04/08 01:23:58;;;;;;;9.73;1.90;;;;;;;6.91;59.74;98441.69;4988705;28;20671;-61
2022/04/08 01:26:24;;;;;;;6.60;2.27;;;;;;;6.93;59.85;98442.41;4993496;28;20667;-62
2022/04/08 01:28:54;;;;;;;9.47;2.57;;;;;;;6.89;59.77;98440.16;4993743;28;20561;-61
2022/04/08 01:31:20;;;;;;;7.77;2.87;;;;;;;6.92;60.08;98442.50;4994933;28;20255;-61
2022/04/08 01:33:46;;;;;;;6.13;2.23;;;;;;;6.93;60.28;98439.03;4999764;28;20699;-62
2022/04/08 01:36:11;;;;;;;4.13;2.43;;;;;;;6.85;60.09;98441.28;4994489;28;20203;-62
2022/04/08 01:38:37;;;;;;;7.50;1.80;;;;;;;6.84;60.51;98439.63;4994718;28;20186;-62
2022/04/08 01:41:02;;;;;;;8.77;2.33;;;;;;;6.83;60.83;98443.91;4983347;28;20278;-61
2022/04/08 01:43:28;;;;;;;6.87;1.97;;;;;;;6.84;60.83;98442.19;4993749;28;20523;-61
2022/04/08 01:45:53;;;;;;;7.47;2.00;;;;;;;6.85;60.87;98444.66;4993876;28;20223;-62
2022/04/08 01:48:18;;;;;;;9.10;2.33;;;;;;;6.76;61.45;98448.63;4993260;28;20215;-60
2022/04/08 01:50:44;;;;;;;7.07;2.27;;;;;;;6.78;61.35;98459.56;4980731;28;20224;-60
2022/04/08 01:53:09;;;;;;;6.63;2.10;;;;;;;6.75;61.90;98461.50;4992845;28;20212;-60
2022/04/08 01:55:35;;;;;;;8.13;2.53;;;;;;;6.68;62.44;98455.16;4993008;28;20176;-61
2022/04/08 01:58:02;;;;;;;6.27;2.23;;;;;;;6.77;62.45;98447.72;4994106;28;20180;-61
2022/04/08 02:00:28;;;;;;;8.03;2.53;;;;;;;6.77;62.82;98457.94;4982382;28;20707;-61
2022/04/08 02:02:53;;;;;;;11.90;2.30;;;;;;;6.71;62.88;98462.59;4993207;28;20209;-62
2022/04/08 02:05:18;;;;;;;10.07;2.77;;;;;;;6.62;63.21;98459.75;4994131;28;20278;-62
2022/04/08 02:07:44;;;;;;;15.30;2.23;;;;;;;6.60;63.82;98465.88;4994515;28;20196;-62
2022/04/08 02:10:10;;;;;;;11.53;2.87;;;;;;;6.65;64.05;98470.66;4983747;28;20320;-63
2022/04/08 02:12:35;;;;;;;10.43;2.63;;;;;;;6.50;64.39;98463.09;4992914;28;20176;-63
2022/04/08 02:15:01;;;;;;;14.23;2.17;;;;;;;6.50;64.60;98477.56;4993626;28;20217;-62
2022/04/08 02:17:28;;;;;;;12.80;2.73;;;;;;;6.50;64.19;98477.56;4994208;28;20198;-62
2022/04/08 02:19:54;;;;;;;11.43;2.23;;;;;;;6.54;64.12;98482.41;4993708;28;20201;-62
2022/04/08 02:22:20;;;;;;;7.93;2.10;;;;;;;6.63;63.67;98478.44;4967414;28;20277;-62
2022/04/08 02:24:46;;;;;;;8.50;2.20;;;;;;;6.70;63.50;98479.69;4993133;28;20288;-64
2022/04/08 02:27:12;;;;;;;8.40;2.60;;;;;;;6.76;63.67;98479.28;4992622;28;20173;-61
2022/04/08 02:29:37;;;;;;;9.10;2.17;;;;;;;6.77;63.89;98492.88;4993664;28;20226;-61
2022/04/08 02:32:04;;;;;;;12.60;2.67;;;;;;;6.80;65.71;98490.13;4998678;28;20231;-61
2022/04/08 02:34:29;;;;;;;7.10;1.77;;;;;;;6.96;66.34;98500.19;4993344;28;20261;-61
2022/04/08 02:36:55;;;;;;;10.07;2.73;;;;;;;6.92;65.81;98498.72;4993022;28;20273;-62
2022/04/08 02:39:20;;;;;;;8.70;2.73;;;;;;;6.95;65.18;98493.44;4992039;28;20228;-60
2022/04/08 02:41:45;;;;;;;10.83;1.97;;;;;;;6.87;65.13;98500.78;4982326;28;20574;-61
2022/04/08 02:44:10;;;;;;;10.40;2.80;;;;;;;6.91;64.79;98503.03;4989061;28;20233;-61
2022/04/08 02:46:36;;;;;;;11.77;2.40;;;;;;;6.88;65.28;98512.63;4993871;28;20189;-62
2022/04/08 02:49:01;;;;;;;8.87;2.67;;;;;;;6.89;66.45;98520.19;4993475;28;20186;-61
2022/04/08 02:51:28;;;;;;;7.90;2.10;;;;;;;6.95;66.59;98519.00;4973969;28;20238;-61
2022/04/08 02:53:54;;;;;;;12.00;2.27;;;;;;;7.00;67.20;98521.25;4977238;28;20185;-62
2022/04/08 02:56:19;;;;;;;9.17;2.37;;;;;;;7.14;67.11;98531.38;4973656;28;20526;-61
2022/04/08 02:58:48;;;;;;;8.20;2.13;;;;;;;7.13;67.79;98526.38;4973989;28;20635;-60
2022/04/08 03:01:14;;;;;;;6.83;2.00;;;;;;;6.98;68.52;98530.75;4945415;28;20268;-60
2022/04/08 03:03:39;;;;;;;5.47;1.70;;;;;;;6.89;69.70;98539.84;4972184;28;20282;-63
2022/04/08 03:06:05;;;;;;;4.77;1.47;;;;;;;6.64;71.40;98554.19;4973125;28;20189;-63
2022/04/08 03:08:30;;;;;;;4.17;1.67;;;;;;;6.40;74.27;98554.81;4973653;28;20543;-61
2022/04/08 03:10:56;;;;;;;4.50;1.80;;;;;;;6.05;77.61;98549.28;4970149;28;20347;-64
2022/04/08 03:13:21;;;;;;;4.60;1.90;;;;;;;6.03;79.37;98546.00;4972026;28;20223;-62
2022/04/08 03:15:46;;;;;;;2.17;1.47;;;;;;;6.02;80.01;98546.94;4969195;28;20319;-62
2022/04/08 03:18:12;;;;;;;4.17;1.43;;;;;;;6.23;80.03;98560.94;4971977;28;20188;-61
2022/04/08 03:20:37;;;;;;;2.77;1.60;;;;;;;6.36;79.12;98550.78;4965215;28;20227;-61
2022/04/08 03:23:02;;;;;;;4.57;1.70;;;;;;;6.39;78.74;98553.16;4991362;28;20187;-62
2022/04/08 03:25:28;;;;;;;2.67;1.40;;;;;;;6.17;79.60;98561.31;4992627;28;20199;-61
2022/04/08 03:27:53;;;;;;;2.63;1.20;;;;;;;5.94;81.10;98555.00;4992426;28;20542;-61
2022/04/08 03:30:18;;;;;;;5.10;1.70;;;;;;;5.93;81.84;98571.25;4964699;28;20262;-62
2022/04/08 03:32:44;;;;;;;3.80;1.57;;;;;;;5.95;81.83;98577.06;5005986;28;20175;-62
2022/04/08 03:35:09;;;;;;;2.30;1.20;;;;;;;5.79;82.03;98547.38;4991590;28;20178;-62
2022/04/08 03:37:34;;;;;;;2.50;1.50;;;;;;;5.79;82.38;98557.59;4992589;28;20553;-63
2022/04/08 03:40:00;;;;;;;3.80;1.47;;;;;;;5.91;82.60;98561.13;4992413;28;20195;-63
2022/04/08 03:42:25;;;;;;;5.00;2.13;;;;;;;6.08;81.84;98570.34;4998100;28;20234;-63
2022/04/08 03:44:51;;;;;;;1.87;1.17;;;;;;;5.97;81.39;98558.19;4990890;28;20613;-61
2022/04/08 03:47:17;;;;;;;4.90;1.30;;;;;;;6.00;82.00;98572.53;4992545;28;20184;-61
2022/04/08 03:49:42;;;;;;;2.13;0.90;;;;;;;5.95;82.13;98575.38;4992488;28;20187;-61
2022/04/08 03:52:09;;;;;;;3.17;1.20;;;;;;;5.85;82.05;98571.69;4997095;28;20587;-62
2022/04/08 03:54:38;;;;;;;2.83;1.40;;;;;;;5.86;82.67;98565.69;4990398;28;20198;-61
2022/04/08 03:57:04;;;;;;;2.30;1.27;;;;;;;6.06;81.69;98576.47;4991139;28;20646;-61
2022/04/08 03:59:30;;;;;;;3.23;1.70;;;;;;;6.13;81.67;98585.41;4990915;28;20646;-61
2022/04/08 04:01:55;;;;;;;4.33;1.23;;;;;;;6.22;81.17;98586.56;4968632;28;20231;-61
2022/04/08 04:04:21;;;;;;;3.80;1.10;;;;;;;6.17;81.47;98586.84;4991767;28;20737;-61
2022/04/08 04:06:46;;;;;;;3.17;1.43;;;;;;;6.18;82.04;98588.50;4990902;28;20579;-61
2022/04/08 04:09:11;;;;;;;1.60;1.10;;;;;;;6.18;82.02;98592.75;4990723;28;20234;-62
2022/04/08 04:11:36;;;;;;;4.57;1.50;;;;;;;6.23;81.78;98593.34;4981535;28;20695;-62
2022/04/08 04:14:02;;;;;;;3.40;1.37;;;;;;;6.09;81.97;98596.69;4991314;28;20183;-61
2022/04/08 04:16:27;;;;;;;2.57;1.30;;;;;;;6.06;82.14;98595.16;4994627;28;20207;-61
2022/04/08 04:18:53;;;;;;;3.80;1.50;;;;;;;5.93;82.85;98595.03;4994912;28;20175;-62
2022/04/08 04:21:18;;;;;;;4.43;1.40;;;;;;;5.95;83.16;98593.22;4977223;28;20713;-62
2022/04/08 04:23:44;;;;;;;2.53;1.33;;;;;;;5.84;83.50;98594.75;5000020;28;20233;-64
2022/04/08 04:26:09;;;;;;;6.33;1.37;;;;;;;5.73;84.18;98611.53;5011111;28;20206;-63
2022/04/08 04:28:35;;;;;;;2.60;1.00;;;;;;;5.66;85.04;98595.75;5011002;28;20240;-63
2022/04/08 04:31:01;;;;;;;2.83;1.30;;;;;;;5.62;85.91;98601.94;5000757;28;20317;-63
2022/04/08 04:33:27;;;;;;;4.53;1.67;;;;;;;5.70;85.92;98603.22;5002129;28;20612;-63
2022/04/08 04:35:52;;;;;;;4.20;1.30;;;;;;;5.62;86.05;98598.59;4994329;28;20287;-63
2022/04/08 04:38:17;;;;;;;4.27;1.67;;;;;;;5.60;87.04;98595.28;4995714;28;20206;-62
2022/04/08 04:40:42;;;;;;;2.57;1.37;;;;;;;5.63;87.07;98608.69;4990823;28;20226;-61
2022/04/08 04:43:08;;;;;;;5.40;1.93;;;;;;;5.69;87.13;98619.44;5005378;28;20191;-61
2022/04/08 04:45:37;;;;;;;2.70;1.47;;;;;;;5.69;86.63;98615.16;4995755;28;20222;-61
2022/04/08 04:48:03;;;;;;;6.03;1.53;;;;;;;5.62;86.50;98621.53;4994144;28;20183;-61
2022/04/08 04:50:29;;;;;;;3.20;1.57;;;;;;;5.61;87.14;98622.44;4987313;28;20253;-61
2022/04/08 04:52:54;;;;;;;3.10;1.50;;;;;;;5.66;86.75;98620.44;5006698;28;20180;-62
2022/04/08 04:55:20;;;;;;;5.27;1.37;;;;;;;5.77;86.41;98630.03;4995615;28;20653;-61
2022/04/08 04:57:45;;;;;;;3.53;1.50;;;;;;;5.81;86.16;98619.53;4994362;28;20205;-62
2022/04/08 05:00:11;;;;;;;3.30;1.47;;;;;;;5.77;85.88;98622.38;4983538;28;20207;-62
2022/04/08 05:02:36;;;;;;;6.50;1.37;;;;;;;5.49;86.95;98627.34;4979190;28;20183;-62
2022/04/08 05:05:02;;;;;;;4.30;1.60;;;;;;;5.46;87.75;98627.50;4994925;28;20220;-62
2022/04/08 05:07:27;;;;;;;3.87;1.53;;;;;;;5.47;87.54;98631.72;4995220;28;20183;-61
2022/04/08 05:09:52;;;;;;;7.13;1.83;;;;;;;5.39;87.97;98630.50;4994564;28;20187;-62
2022/04/08 05:12:17;;;;;;;4.53;1.60;;;;;;;5.45;88.35;98623.31;4984343;28;20557;-61
2022/04/08 05:14:43;;;;;;;4.83;1.87;;;;;;;5.58;88.07;98622.63;4994772;28;20605;-62
2022/04/08 05:17:08;;;;;;;4.20;1.60;;;;;;;5.65;87.55;98621.34;4994914;28;20178;-63
2022/04/08 05:19:33;;;;;;;6.63;1.83;;;;;;;5.79;85.94;98618.00;4995149;28;20175;-61
2022/04/08 05:21:58;;;;;;;5.80;2.93;;;;;;;5.86;85.50;98621.81;4983630;28;20230;-61
2022/04/08 05:24:24;;;;;;;6.23;2.50;;;;;;;5.98;83.71;98633.06;4994841;28;20650;-61
2022/04/08 05:26:49;;;;;;;4.80;2.23;;;;;;;6.07;83.54;98624.06;4993279;28;20214;-61
2022/04/08 05:29:14;;;;;;;5.20;2.63;;;;;;;6.22;82.18;98614.66;4993441;28;20182;-61
2022/04/08 05:31:40;;;;;;;6.00;3.10;;;;;;;6.31;81.78;98624.31;4972807;28;20746;-61
2022/04/08 05:34:05;;;;;;;4.00;2.10;;;;;;;6.43;81.46;98621.00;4993963;28;20187;-60
2022/04/08 05:36:31;;;;;;;12.20;2.93;;;;;;;6.46;80.51;98614.88;4993386;28;20180;-62
2022/04/08 05:38:56;;;;;;;7.57;2.37;;;;;;;6.47;79.14;98606.31;4993448;28;20187;-61
2022/04/08 05:41:22;;;;;;;10.60;2.33;;;;;;;6.67;78.56;98612.75;4983868;28;20223;-61
2022/04/08 05:43:47;;;;;;;4.47;1.70;;;;;;;6.73;78.51;98611.56;4993728;28;20183;-61
2022/04/08 05:46:14;;;;;;;3.87;1.70;;;;;;;6.80;77.71;98607.69;4993031;28;20185;-61
2022/04/08 05:48:40;;;;;;;4.37;1.97;;;;;;;6.82;78.13;98605.03;4993159;28;20200;-61
2022/04/08 05:51:05;;;;;;;9.17;2.40;;;;;;;6.77;78.54;98615.53;4977662;28;20235;-61
2022/04/08 05:53:30;;;;;;;4.63;1.67;;;;;;;6.89;77.62;98619.88;4981696;28;20276;-61
2022/04/08 05:55:57;;;;;;;3.03;1.83;;;;;;;7.07;76.39;98620.47;4974756;28;20201;-60
2022/04/08 05:58:22;;;;;;;6.57;2.03;;;;;;;7.26;75.08;98617.53;4973649;28;20542;-61
2022/04/08 06:00:47;;;;;;;6.30;1.63;;;;;;;7.21;75.35;98622.13;4970678;28;20248;-61
2022/04/08 06:03:13;;;;;;;7.17;2.07;;;;;;;7.16;75.86;98623.38;4983504;28;20192;-61
2022/04/08 06:05:38;;;;;;;5.80;2.53;;;;;;;7.02;76.68;98622.50;4974854;28;20185;-60
2022/04/08 06:08:04;;;;;;;7.07;2.90;;;;;;;6.74;77.34;98626.78;4974395;28;20175;-61
2022/04/08 06:10:30;;;;;;;4.07;1.80;;;;;;;6.53;78.08;98608.50;4966508;28;20317;-63
2022/04/08 06:12:56;;;;;;;6.73;2.23;;;;;;;6.97;77.57;98610.91;4972897;28;20183;-62
2022/04/08 06:15:22;;;;;;;5.70;1.73;;;;;;;7.24;75.49;98608.34;4973083;28;20315;-60
2022/04/08 06:17:47;;;;;;;5.50;2.37;;;;;;;7.31;74.83;98603.66;4973103;28;20266;-61
2022/04/08 06:20:17;;;;;;;6.03;1.83;;;;;;;7.29;73.69;98605.47;4965118;28;20680;-61
2022/04/08 06:22:43;;;;;;;5.90;2.10;;;;;;;7.43;74.32;98598.53;4992821;28;20601;-61
2022/04/08 06:25:11;;;;;;;11.37;2.37;;;;;;;7.52;73.73;98599.69;4993256;28;20439;-60
2022/04/08 06:27:36;;;;;;;5.43;2.20;;;;;;;7.96;72.12;98594.25;4991881;28;20183;-61
2022/04/08 06:30:08;;;;;;;7.47;2.13;;;;;;;7.93;71.21;98589.34;4990500;28;20305;-61
2022/04/08 06:32:33;;;;;;;8.67;2.40;;;;;;;7.93;70.90;98585.03;5007981;28;20217;-61
2022/04/08 06:34:58;;;;;;;7.57;2.30;;;;;;;8.17;70.57;98591.97;4992879;28;20627;-62
2022/04/08 06:37:28;;;;;;;7.33;2.83;;;;;;;8.21;68.88;98581.41;4992484;28;20183;-62
2022/04/08 06:39:54;;;;;;;9.53;2.50;;;;;;;8.20;68.40;98584.88;4991101;28;20210;-62
2022/04/08 06:42:19;;;;;;;10.27;3.07;;;;;;;8.25;68.35;98584.56;4999604;28;20227;-62
2022/04/08 06:44:44;;;;;;;12.90;2.70;;;;;;;8.35;68.25;98583.00;5008121;28;20190;-62
2022/04/08 06:47:10;;;;;;;7.37;2.40;;;;;;;8.15;67.92;98578.44;5010338;28;20209;-61
2022/04/08 06:49:35;;;;;;;8.63;2.63;;;;;;;8.01;68.22;98580.22;5012109;28;20179;-61
2022/04/08 06:52:01;;;;;;;7.47;3.33;;;;;;;8.08;68.81;98576.28;4984226;28;20249;-61
2022/04/08 06:54:27;;;;;;;12.47;2.90;;;;;;;8.28;68.86;98568.97;5005822;28;20217;-61
2022/04/08 06:56:52;;;;;;;7.47;3.00;;;;;;;8.19;68.60;98569.63;5009648;28;20191;-62
2022/04/08 06:59:17;;;;;;;8.67;2.97;;;;;;;8.36;68.64;98558.19;5012089;28;20601;-62
2022/04/08 07:01:43;;;;;;;8.13;3.10;;;;;;;8.53;68.06;98560.44;4977488;28;20231;-62
2022/04/08 07:04:08;;;;;;;12.23;2.97;;;;;;;8.45;67.80;98555.00;4948865;28;20238;-61
2022/04/08 07:06:34;;;;;;;9.87;2.47;;;;;;;8.53;67.37;98547.63;5011812;28;20630;-63
2022/04/08 07:08:59;;;;;;;7.80;3.10;;;;;;;8.75;67.50;98545.28;5011206;28;20618;-61
2022/04/08 07:11:24;;;;;;;12.97;2.67;;;;;;;8.93;66.88;98540.53;4982344;28;20318;-61
2022/04/08 07:13:49;;;;;;;11.83;2.70;;;;;;;8.97;66.87;98537.66;5004694;28;20194;-65
2022/04/08 07:16:15;;;;;;;9.23;3.27;;;;;;;9.23;66.33;98544.34;4998854;28;20686;-63
2022/04/08 07:18:40;;;;;;;6.70;2.43;;;;;;;9.51;64.68;98538.00;5011201;28;20187;-63
2022/04/08 07:21:06;;;;;;;12.73;3.03;;;;;;;9.61;63.77;98531.25;4996556;28;20296;-63
2022/04/08 07:23:32;;;;;;;8.77;2.83;;;;;;;9.34;63.58;98528.97;5009746;28;20210;-64
2022/04/08 07:25:57;;;;;;;9.80;3.10;;;;;;;9.24;64.58;98530.59;4999955;28;20609;-64
2022/04/08 07:28:23;;;;;;;9.73;2.67;;;;;;;9.23;64.61;98526.41;5007250;28;20210;-62
2022/04/08 07:30:49;;;;;;;7.50;2.63;;;;;;;9.30;64.74;98523.28;4975622;28;20254;-69
2022/04/08 07:33:15;;;;;;;12.03;3.43;;;;;;;9.17;65.03;98525.13;4990174;28;20179;-60
2022/04/08 07:35:41;;;;;;;7.93;2.50;;;;;;;9.43;64.93;98525.75;5010750;28;20178;-60
2022/04/08 07:38:07;;;;;;;11.03;2.50;;;;;;;9.47;64.30;98518.63;5010530;28;20187;-61
2022/04/08 07:40:32;;;;;;;12.82;3.20;;;;;;;9.40;63.53;98522.56;4983806;28;20456;-61
2022/04/08 07:42:57;;;;;;;8.97;3.43;;;;;;;9.42;64.55;98525.84;4992051;28;20232;-65
2022/04/08 07:45:27;;;;;;;7.77;2.33;;;;;;;9.12;65.08;98525.44;5007258;28;20222;-62
2022/04/08 07:47:55;;;;;;;9.03;2.83;;;;;;;9.07;65.75;98524.97;5004973;28;20279;-61
2022/04/08 07:50:21;;;;;;;6.73;2.63;;;;;;;8.94;66.61;98521.66;4963409;28;20187;-60
2022/04/08 07:52:46;;;;;;;12.40;2.87;;;;;;;8.99;66.32;98525.53;4971443;28;20231;-64
2022/04/08 07:55:12;;;;;;;8.30;2.80;;;;;;;9.19;65.96;98521.50;4977445;28;20171;-63
2022/04/08 07:57:48;;;;;;;8.40;2.80;;;;;;;9.10;64.40;98511.91;5009110;28;20299;-63
2022/04/08 08:00:15;;;;;;;8.05;2.35;;;;;;;9.24;64.59;98523.75;4975051;28;20373;-65
2022/04/08 08:02:41;;;;;;;9.67;2.93;;;;;;;9.54;64.01;98522.38;4985748;28;20418;-63
2022/04/08 08:05:07;;;;;;;10.17;2.70;;;;;;;9.47;64.03;98523.75;4954608;28;20311;-63
2022/04/08 08:07:57;;;;;;;;;;;;;;;9.73;63.55;98524.34;4335449;28;990237;-63
2022/04/08 08:10:38;;;;;;;11.57;3.60;;;;;;;10.20;59.74;98513.91;4945598;28;989017;-63
2022/04/08 08:13:23;;;;;;;27.53;25.47;;;;;;;10.22;59.04;98516.34;2528155;28;992912;-63
2022/04/08 08:15:48;;;;;;;9.40;3.20;;;;;;;9.68;61.87;98513.63;5008361;28;20241;-62
2022/04/08 08:18:14;;;;;;;8.00;2.77;;;;;;;9.80;62.64;98511.88;5005375;28;20261;-64
2022/04/08 08:20:39;;;;;;;8.23;2.93;;;;;;;9.94;62.38;98515.94;5000429;28;20226;-63
2022/04/08 08:23:08;;;;;;;13.77;3.07;;;;;;;9.52;61.92;98516.53;4995182;28;20202;-64
2022/04/08 08:25:33;;;;;;;6.50;2.43;;;;;;;9.53;61.87;98521.53;4990454;28;20214;-63
2022/04/08 08:28:01;;;;;;;7.97;2.67;;;;;;;9.23;61.15;98518.69;4991683;28;20172;-63
2022/04/08 08:30:29;;;;;;;6.70;2.33;;;;;;;9.55;61.37;98515.47;4980224;28;20223;-64
2022/04/08 08:32:55;;;;;;;8.40;2.53;;;;;;;9.59;61.49;98514.31;4977544;28;20592;-63
2022/04/08 08:35:21;;;;;;;9.07;2.60;;;;;;;9.63;62.65;98516.53;4991194;28;20188;-63
2022/04/08 08:37:49;;;;;;;8.87;2.23;;;;;;;9.81;62.59;98513.47;5000279;28;20179;-62
2022/04/08 08:40:17;;;;;;;8.50;2.30;;;;;;;9.72;62.30;98502.16;4981362;28;20203;-63
2022/04/08 08:42:43;;;;;;;7.00;2.30;;;;;;;9.40;62.96;98497.72;5004599;28;20207;-63
2022/04/08 08:45:10;;;;;;;9.30;2.90;;;;;;;9.27;65.85;98497.03;5006973;28;20244;-61
2022/04/08 08:47:36;;;;;;;6.13;2.50;;;;;;;9.37;66.50;98485.94;5009026;28;20341;-64
2022/04/08 08:50:03;;;;;;;9.57;2.50;;;;;;;9.42;68.01;98492.50;4991426;28;20687;-62
2022/04/08 08:52:28;;;;;;;6.60;2.40;;;;;;;9.35;66.40;98485.25;4980101;28;20215;-62
2022/04/08 08:54:54;;;;;;;10.13;2.67;;;;;;;9.60;68.26;98477.44;5010717;28;20624;-62
2022/04/08 08:57:21;;;;;;;9.60;2.43;;;;;;;9.37;68.33;98485.13;5010072;28;20626;-66
2022/04/08 08:59:50;;;;;;;7.73;3.00;;;;;;;9.43;69.83;98489.81;5009983;28;20316;-74
2022/04/08 09:02:20;;;;;;;11.57;2.93;;;;;;;9.26;70.04;98472.31;4967741;28;20227;-69
2022/04/08 09:04:46;;;;;;;9.20;2.53;;;;;;;9.21;70.78;98467.50;5012048;28;20697;-70
2022/04/08 09:07:30;;;;;;;10.13;3.13;;;;;;;9.29;71.34;98461.78;5013553;28;20185;-68
2022/04/08 09:09:58;;;;;;;9.43;2.80;;;;;;;9.36;72.95;98465.53;5012483;28;20641;-69
2022/04/08 09:12:26;;;;;;;9.47;3.20;;;;;;;9.54;72.03;98463.34;5002764;28;20246;-69
2022/04/08 09:14:58;;;;;;;6.93;1.77;;;;;;;9.53;65.40;98461.69;5010619;28;20194;-70
2022/04/08 09:17:26;;;;;;;10.10;2.60;;;;;;;9.53;64.60;98454.78;5012036;28;20420;-67
2022/04/08 09:19:54;;;;;;;11.35;3.28;;;;;;;9.96;66.20;98449.84;5010732;28;20426;-68
2022/04/08 09:22:20;;;;;;;8.87;2.77;;;;;;;9.41;64.52;98450.59;4982549;28;20718;-68
2022/04/08 09:24:46;;;;;;;7.03;2.40;;;;;;;9.24;65.09;98441.63;4992867;28;20202;-62
2022/04/08 09:27:12;;;;;;;8.40;2.30;;;;;;;9.18;67.33;98442.09;5002447;28;20195;-65
2022/04/08 09:29:45;;;;;;;6.50;2.03;;;;;;;9.20;67.88;98433.34;5005717;28;20178;-62
2022/04/08 09:32:13;;;;;;;7.60;2.50;;;;;;;8.96;70.44;98430.88;4980946;28;20240;-62
2022/04/08 09:34:40;;;;;;;5.77;2.53;;;;;;;8.53;71.99;98440.00;5009715;28;20604;-62
2022/04/08 09:37:12;;;;;;;7.10;2.20;;;;;;;8.58;73.56;98438.81;5009352;28;20174;-62
2022/04/08 09:40:03;;;;;;;9.77;2.40;;;;;;;8.50;74.77;98431.69;5002563;28;20193;-62
2022/04/08 09:42:43;;;;;;;9.83;2.80;;;;;;;8.55;76.59;98427.88;4947389;28;20220;-60
2022/04/08 09:45:09;;;;;;;5.87;2.00;;;;;;;8.39;75.54;98417.88;4973321;28;20183;-60
2022/04/08 09:47:36;;;;;;;4.87;1.90;;;;;;;8.28;77.43;98412.72;4973723;28;20246;-61
2022/04/08 09:50:01;;;;;;;7.87;2.30;;;;;;;8.36;80.92;98415.56;4974779;28;20198;-63
2022/04/08 09:52:26;;;;;;;7.07;2.90;;;;;;;8.26;80.83;98409.47;4971695;28;20235;-62
2022/04/08 09:54:53;;;;;;;7.70;2.93;;;;;;;7.95;81.78;98405.69;4993605;28;20168;-61
2022/04/08 09:57:19;;;;;;;8.37;3.23;;;;;;;7.91;84.71;98399.97;4994319;28;20191;-60
2022/04/08 09:59:53;;;;;;;5.50;1.80;;;;;;;7.87;85.31;98394.25;4992764;28;20234;-61
2022/04/08 10:02:19;;;;;;;9.53;2.07;;;;;;;7.83;83.88;98397.16;4963635;28;20242;-61
2022/04/08 10:04:44;;;;;;;7.97;2.30;;;;;;;7.99;84.86;98390.00;5002829;28;20236;-60
2022/04/08 10:07:11;;;;;;;7.18;2.38;;;;;;;8.30;83.19;98375.00;5012476;28;20403;-62
2022/04/08 10:09:59;;;;;;;9.00;2.73;;;;;;;8.11;83.95;98374.69;5011054;28;20245;-63
2022/04/08 10:12:35;;;;;;;8.27;2.30;;;;;;;7.65;84.88;98366.78;4971847;28;20226;-62
2022/04/08 10:15:29;;;;;;;8.80;1.97;;;;;;;7.62;87.61;98369.56;4990820;28;20202;-62
2022/04/08 10:17:57;;;;;;;12.13;2.60;;;;;;;7.60;90.63;98376.53;4982207;28;20671;-64
2022/04/08 10:20:24;;;;;;;9.03;2.13;;;;;;;7.46;92.02;98372.38;4966888;28;20228;-63
2022/04/08 10:22:49;;;;;;;5.10;2.37;;;;;;;7.30;94.56;98371.81;4972397;28;20297;-69
2022/04/08 10:25:18;;;;;;;8.27;2.80;;;;;;;7.23;95.43;98371.41;4990336;28;20322;-61
2022/04/08 10:27:44;;;;;;;10.00;3.20;;;;;;;7.21;97.41;98368.97;4973762;28;20234;-62
2022/04/08 10:30:32;;;;;;;5.93;2.37;;;;;;;7.04;99.17;98367.53;4979350;28;20205;-62
2022/04/08 10:33:03;;;;;;;6.80;2.70;;;;;;;7.22;100.00;98368.03;4961585;28;20190;-61
2022/04/08 10:35:29;;;;;;;6.63;2.10;;;;;;;7.43;100.00;98370.06;4990167;28;20190;-60
2022/04/08 10:37:57;;;;;;;5.33;2.37;;;;;;;7.50;100.00;98367.88;4974707;28;20185;-60
2022/04/08 10:40:32;;;;;;;4.00;2.60;;;;;;;7.46;98.37;98361.34;4962141;28;20305;-61
2022/04/08 10:43:05;;;;;;;4.40;2.23;;;;;;;7.31;100.00;98360.66;4978198;28;20725;-63
2022/04/08 10:45:30;;;;;;;3.83;1.63;;;;;;;7.16;99.18;98360.78;4974747;28;20272;-60
2022/04/08 10:48:11;;;;;;;4.77;1.73;;;;;;;7.32;98.81;98355.44;4971643;28;20739;-60
2022/04/08 10:50:39;;;;;;;3.87;1.77;;;;;;;7.28;98.69;98361.66;4961722;28;20280;-61
2022/04/08 10:53:08;;;;;;;3.37;1.60;;;;;;;7.30;99.77;98352.16;4946550;29;20187;-61
2022/04/08 10:55:54;;;;;;;3.17;1.60;;;;;;;7.17;100.00;98352.19;4954040;29;20193;-61
2022/04/08 10:58:34;;;;;;;3.20;1.73;;;;;;;7.08;100.00;98347.69;4954708;28;20532;-61
2022/04/08 11:01:00;;;;;;;2.33;1.10;;;;;;;7.16;100.00;98342.88;4943883;28;20261;-61
2022/04/08 11:03:29;;;;;;;2.43;1.20;;;;;;;6.98;100.00;98349.25;4972310;28;20289;-61
2022/04/08 11:05:55;;;;;;;5.03;1.40;;;;;;;7.04;100.00;98351.41;4971905;28;20190;-62
2022/04/08 11:08:27;;;;;;;3.70;1.50;;;;;;;7.06;100.00;98347.81;4972458;28;20645;-61
2022/04/08 11:10:59;;;;;;;3.73;1.67;;;;;;;7.19;100.00;98349.53;4972308;28;20232;-61
2022/04/08 11:13:24;;;;;;;3.03;1.60;;;;;;;7.09;100.00;98345.06;4990082;28;20638;-62
2022/04/08 11:15:50;;;;;;;4.67;1.67;;;;;;;7.05;100.00;98348.72;4971315;28;20235;-61
2022/04/08 11:18:15;;;;;;;2.67;1.40;;;;;;;7.05;100.00;98343.59;5001642;28;20547;-61
2022/04/08 11:20:48;;;;;;;4.07;1.40;;;;;;;6.70;100.00;98334.03;4987678;28;20687;-61
2022/04/08 11:23:13;;;;;;;5.50;1.50;;;;;;;6.74;100.00;98340.56;4991475;28;20207;-61
2022/04/08 11:25:38;;;;;;;3.23;1.40;;;;;;;6.78;100.00;98331.78;4992407;28;20291;-61
2022/04/08 11:28:09;;;;;;;3.60;1.57;;;;;;;6.70;100.00;98325.53;4991226;28;20204;-61
2022/04/08 11:30:39;;;;;;;2.80;1.50;;;;;;;6.65;100.00;98320.75;4955647;28;20244;-61
2022/04/08 11:33:16;;;;;;;5.37;1.97;;;;;;;6.48;100.00;98313.41;4968328;28;20617;-60
2022/04/08 11:35:43;;;;;;;2.57;1.70;;;;;;;6.53;100.00;98313.91;4991312;28;20212;-62
2022/04/08 11:38:20;;;;;;;2.33;1.43;;;;;;;6.68;100.00;98301.84;4990654;28;20176;-61